createdAt,value
2022-11-15T00:00:41.569Z,1003.50
2022-11-15T00:01:41.652Z,1003.51
2022-11-15T00:02:41.539Z,1003.52
2022-11-15T00:03:41.564Z,1003.52
2022-11-15T00:04:41.513Z,1003.50
2022-11-15T00:05:41.504Z,1003.48
2022-11-15T00:06:41.506Z,1003.49
2022-11-15T00:07:55.250Z,1003.50
2022-11-15T00:08:41.524Z,1003.51
2022-11-15T00:09:45.823Z,1003.53
2022-11-15T00:10:41.461Z,1003.53
2022-11-15T00:11:41.513Z,1003.50
2022-11-15T00:12:41.443Z,1003.49
2022-11-15T00:13:41.461Z,1003.48
2022-11-15T00:14:41.416Z,1003.47
2022-11-15T00:15:41.460Z,1003.46
2022-11-15T00:16:41.426Z,1003.45
2022-11-15T00:17:41.385Z,1003.44
2022-11-15T00:18:45.159Z,1003.42
2022-11-15T00:19:41.386Z,1003.42
2022-11-15T00:20:41.383Z,1003.45
2022-11-15T00:21:41.364Z,1003.46
2022-11-15T00:22:41.337Z,1003.46
2022-11-15T00:23:41.324Z,1003.44
2022-11-15T00:24:41.325Z,1003.41
2022-11-15T00:25:41.327Z,1003.39
2022-11-15T00:26:41.324Z,1003.36
2022-11-15T00:27:41.311Z,1003.35
2022-11-15T00:28:41.296Z,1003.35
2022-11-15T00:29:41.279Z,1003.34
2022-11-15T00:30:41.265Z,1003.35
2022-11-15T00:31:41.264Z,1003.34
2022-11-15T00:32:41.271Z,1003.33
2022-11-15T00:33:41.223Z,1003.31
2022-11-15T00:34:41.238Z,1003.31
2022-11-15T00:35:41.208Z,1003.26
2022-11-15T00:36:41.217Z,1003.22
2022-11-15T00:37:41.184Z,1003.20
2022-11-15T00:38:41.206Z,1003.18
2022-11-15T00:39:41.222Z,1003.16
2022-11-15T00:40:41.158Z,1003.15
2022-11-15T00:41:41.167Z,1003.16
2022-11-15T00:42:41.151Z,1003.18
2022-11-15T00:43:41.170Z,1003.20
2022-11-15T00:44:41.133Z,1003.20
2022-11-15T00:45:41.118Z,1003.22
2022-11-15T00:46:41.124Z,1003.22
2022-11-15T00:47:41.117Z,1003.23
2022-11-15T00:48:41.095Z,1003.22
2022-11-15T00:49:41.094Z,1003.21
2022-11-15T00:50:41.073Z,1003.22
2022-11-15T00:51:41.099Z,1003.23
2022-11-15T00:52:41.048Z,1003.25
2022-11-15T00:53:41.107Z,1003.27
2022-11-15T00:54:41.027Z,1003.25
2022-11-15T00:55:41.016Z,1003.20
2022-11-15T00:56:41.005Z,1003.16
2022-11-15T00:57:40.993Z,1003.15
2022-11-15T00:58:41.003Z,1003.14
2022-11-15T00:59:41.000Z,1003.12
2022-11-15T01:00:41.010Z,1003.11
2022-11-15T01:01:40.982Z,1003.10
2022-11-15T01:02:40.946Z,1003.10
2022-11-15T01:03:40.975Z,1003.08
2022-11-15T01:04:40.950Z,1003.06
2022-11-15T01:05:40.923Z,1003.06
2022-11-15T01:06:40.909Z,1003.05
2022-11-15T01:07:40.896Z,1003.04
2022-11-15T01:08:40.895Z,1003.06
2022-11-15T01:09:40.909Z,1003.08
2022-11-15T01:10:40.873Z,1003.11
2022-11-15T01:11:40.878Z,1003.13
2022-11-15T01:12:40.867Z,1003.13
2022-11-15T01:13:40.860Z,1003.13
2022-11-15T01:14:40.821Z,1003.12
2022-11-15T01:15:40.865Z,1003.11
2022-11-15T01:16:40.800Z,1003.09
2022-11-15T01:17:40.806Z,1003.06
2022-11-15T01:18:40.787Z,1003.06
2022-11-15T01:19:40.772Z,1003.07
2022-11-15T01:20:40.793Z,1003.06
2022-11-15T01:21:40.754Z,1003.05
2022-11-15T01:22:40.741Z,1003.04
2022-11-15T01:23:40.747Z,1003.05
2022-11-15T01:24:40.749Z,1003.07
2022-11-15T01:25:40.733Z,1003.10
2022-11-15T01:26:40.703Z,1003.12
2022-11-15T01:27:40.694Z,1003.12
2022-11-15T01:28:40.689Z,1003.10
2022-11-15T01:29:40.712Z,1003.09
2022-11-15T01:30:40.708Z,1003.08
2022-11-15T01:31:40.687Z,1003.08
2022-11-15T01:32:40.676Z,1003.07
2022-11-15T01:33:40.644Z,1003.04
2022-11-15T01:34:40.630Z,1002.99
2022-11-15T01:35:40.627Z,1002.96
2022-11-15T01:36:40.627Z,1002.94
2022-11-15T01:37:40.637Z,1002.95
2022-11-15T01:38:40.581Z,1002.95
2022-11-15T01:39:40.596Z,1002.94
2022-11-15T01:40:40.607Z,1002.92
2022-11-15T01:41:40.563Z,1002.91
2022-11-15T01:42:40.568Z,1002.89
2022-11-15T01:43:40.535Z,1002.90
2022-11-15T01:44:40.519Z,1002.88
2022-11-15T01:45:40.530Z,1002.87
2022-11-15T01:46:40.563Z,1002.87
2022-11-15T01:47:40.543Z,1002.88
2022-11-15T01:48:40.504Z,1002.89
2022-11-15T01:49:40.472Z,1002.89
2022-11-15T01:50:40.463Z,1002.88
2022-11-15T01:51:40.454Z,1002.86
2022-11-15T01:52:40.451Z,1002.85
2022-11-15T01:53:40.489Z,1002.83
2022-11-15T01:54:40.436Z,1002.81
2022-11-15T01:55:40.435Z,1002.82
2022-11-15T01:56:40.401Z,1002.84
2022-11-15T01:57:40.401Z,1002.82
2022-11-15T01:58:40.383Z,1002.79
2022-11-15T01:59:40.403Z,1002.76
2022-11-15T02:00:40.441Z,1002.73
2022-11-15T02:01:40.383Z,1002.70
2022-11-15T02:02:40.342Z,1002.70
2022-11-15T02:03:40.367Z,1002.67
2022-11-15T02:04:40.331Z,1002.65
2022-11-15T02:05:40.363Z,1002.64
2022-11-15T02:06:40.429Z,1002.62
2022-11-15T02:07:40.315Z,1002.59
2022-11-15T02:08:40.301Z,1002.57
2022-11-15T02:09:40.278Z,1002.58
2022-11-15T02:10:40.299Z,1002.53
2022-11-15T02:11:40.295Z,1002.54
2022-11-15T02:12:40.288Z,1002.52
2022-11-15T02:13:40.236Z,1002.49
2022-11-15T02:14:40.241Z,1002.49
2022-11-15T02:15:40.237Z,1002.52
2022-11-15T02:16:40.325Z,1002.52
2022-11-15T02:17:40.208Z,1002.52
2022-11-15T02:18:40.205Z,1002.55
2022-11-15T02:19:40.177Z,1002.56
2022-11-15T02:20:40.165Z,1002.58
2022-11-15T02:21:40.173Z,1002.56
2022-11-15T02:22:40.146Z,1002.57
2022-11-15T02:23:40.156Z,1002.56
2022-11-15T02:24:40.126Z,1002.55
2022-11-15T02:25:40.119Z,1002.56
2022-11-15T02:26:40.177Z,1002.56
2022-11-15T02:27:40.092Z,1002.55
2022-11-15T02:28:40.122Z,1002.54
2022-11-15T02:29:40.090Z,1002.54
2022-11-15T02:30:40.071Z,1002.52
2022-11-15T02:31:40.091Z,1002.49
2022-11-15T02:32:40.049Z,1002.48
2022-11-15T02:33:40.062Z,1002.42
2022-11-15T02:34:40.084Z,1002.41
2022-11-15T02:35:40.025Z,1002.40
2022-11-15T02:36:40.066Z,1002.38
2022-11-15T02:37:40.038Z,1002.37
2022-11-15T02:38:39.992Z,1002.37
2022-11-15T02:39:40.003Z,1002.38
2022-11-15T02:40:39.985Z,1002.40
2022-11-15T02:41:39.963Z,1002.41
2022-11-15T02:42:39.972Z,1002.39
2022-11-15T02:43:39.932Z,1002.35
2022-11-15T02:44:39.935Z,1002.34
2022-11-15T02:45:39.936Z,1002.32
2022-11-15T02:46:39.915Z,1002.31
2022-11-15T02:47:39.969Z,1002.30
2022-11-15T02:48:39.913Z,1002.30
2022-11-15T02:49:39.884Z,1002.29
2022-11-15T02:50:39.873Z,1002.29
2022-11-15T02:51:39.862Z,1002.28
2022-11-15T02:52:39.849Z,1002.27
2022-11-15T02:53:39.884Z,1002.26
2022-11-15T02:54:39.859Z,1002.26
2022-11-15T02:55:39.821Z,1002.25
2022-11-15T02:56:39.819Z,1002.27
2022-11-15T02:57:39.827Z,1002.26
2022-11-15T02:58:39.823Z,1002.25
2022-11-15T02:59:39.779Z,1002.25
2022-11-15T03:00:39.828Z,1002.24
2022-11-15T03:01:39.846Z,1002.23
2022-11-15T03:02:39.765Z,1002.21
2022-11-15T03:03:39.788Z,1002.20
2022-11-15T03:04:39.724Z,1002.21
2022-11-15T03:05:39.808Z,1002.22
2022-11-15T03:06:39.716Z,1002.23
2022-11-15T03:07:39.705Z,1002.26
2022-11-15T03:08:39.680Z,1002.25
2022-11-15T03:09:39.706Z,1002.25
2022-11-15T03:10:39.689Z,1002.25
2022-11-15T03:11:39.728Z,1002.24
2022-11-15T03:12:39.698Z,1002.24
2022-11-15T03:13:39.654Z,1002.24
2022-11-15T03:14:39.629Z,1002.24
2022-11-15T03:15:39.660Z,1002.22
2022-11-15T03:16:39.644Z,1002.23
2022-11-15T03:17:39.597Z,1002.25
2022-11-15T03:18:39.583Z,1002.25
2022-11-15T03:19:39.584Z,1002.26
2022-11-15T03:20:39.563Z,1002.25
2022-11-15T03:21:39.598Z,1002.24
2022-11-15T03:22:39.552Z,1002.25
2022-11-15T03:23:39.549Z,1002.23
2022-11-15T03:24:39.556Z,1002.21
2022-11-15T03:25:39.554Z,1002.19
2022-11-15T03:26:39.535Z,1002.18
2022-11-15T03:27:39.538Z,1002.19
2022-11-15T03:28:39.490Z,1002.20
2022-11-15T03:29:39.510Z,1002.20
2022-11-15T03:30:39.486Z,1002.19
2022-11-15T03:31:39.525Z,1002.18
2022-11-15T03:32:39.472Z,1002.17
2022-11-15T03:33:39.508Z,1002.17
2022-11-15T03:34:39.430Z,1002.17
2022-11-15T03:35:39.468Z,1002.17
2022-11-15T03:36:39.412Z,1002.17
2022-11-15T03:37:39.438Z,1002.17
2022-11-15T03:38:39.432Z,1002.18
2022-11-15T03:39:39.391Z,1002.19
2022-11-15T03:40:39.386Z,1002.18
2022-11-15T03:41:39.374Z,1002.18
2022-11-15T03:42:39.391Z,1002.17
2022-11-15T03:43:39.384Z,1002.17
2022-11-15T03:44:39.347Z,1002.16
2022-11-15T03:45:39.328Z,1002.15
2022-11-15T03:46:39.316Z,1002.14
2022-11-15T03:47:39.323Z,1002.14
2022-11-15T03:48:39.323Z,1002.15
2022-11-15T03:49:39.312Z,1002.15
2022-11-15T03:50:39.288Z,1002.17
2022-11-15T03:51:39.301Z,1002.17
2022-11-15T03:52:39.260Z,1002.17
2022-11-15T03:53:39.288Z,1002.18
2022-11-15T03:54:39.219Z,1002.21
2022-11-15T03:55:39.280Z,1002.22
2022-11-15T03:56:39.222Z,1002.24
2022-11-15T03:57:39.242Z,1002.24
2022-11-15T03:58:39.196Z,1002.24
2022-11-15T03:59:39.182Z,1002.25
2022-11-15T04:00:39.220Z,1002.27
2022-11-15T04:01:39.307Z,1002.26
2022-11-15T04:02:39.158Z,1002.25
2022-11-15T04:03:39.165Z,1002.24
2022-11-15T04:04:39.177Z,1002.24
2022-11-15T04:05:39.149Z,1002.24
2022-11-15T04:06:39.130Z,1002.24
2022-11-15T04:07:39.131Z,1002.24
2022-11-15T04:08:39.112Z,1002.24
2022-11-15T04:09:39.099Z,1002.23
2022-11-15T04:10:39.101Z,1002.24
2022-11-15T04:11:39.087Z,1002.25
2022-11-15T04:12:39.118Z,1002.25
2022-11-15T04:13:39.060Z,1002.25
2022-11-15T04:14:39.037Z,1002.27
2022-11-15T04:15:39.034Z,1002.27
2022-11-15T04:16:43.707Z,1002.26
2022-11-15T04:17:39.047Z,1002.26
2022-11-15T04:18:39.010Z,1002.25
2022-11-15T04:19:38.990Z,1002.25
2022-11-15T04:20:38.988Z,1002.24
2022-11-15T04:21:38.972Z,1002.21
2022-11-15T04:22:38.986Z,1002.20
2022-11-15T04:23:38.935Z,1002.19
2022-11-15T04:24:38.942Z,1002.18
2022-11-15T04:25:38.940Z,1002.18
2022-11-15T04:26:38.926Z,1002.16
2022-11-15T04:27:38.921Z,1002.15
2022-11-15T04:28:38.918Z,1002.14
2022-11-15T04:29:38.914Z,1002.12
2022-11-15T04:30:38.883Z,1002.10
2022-11-15T04:31:38.871Z,1002.08
2022-11-15T04:32:38.896Z,1002.05
2022-11-15T04:33:38.880Z,1002.02
2022-11-15T04:34:38.870Z,1002.00
2022-11-15T04:35:38.837Z,1001.98
2022-11-15T04:36:38.871Z,1001.96
2022-11-15T04:37:38.808Z,1001.96
2022-11-15T04:38:38.802Z,1001.94
2022-11-15T04:39:38.832Z,1001.92
2022-11-15T04:40:38.795Z,1001.89
2022-11-15T04:41:38.772Z,1001.90
2022-11-15T04:42:38.706Z,1001.88
2022-11-15T04:43:38.758Z,1001.86
2022-11-15T04:44:38.770Z,1001.86
2022-11-15T04:45:38.724Z,1001.85
2022-11-15T04:46:38.746Z,1001.88
2022-11-15T04:47:38.741Z,1001.89
2022-11-15T04:48:38.767Z,1001.93
2022-11-15T04:49:38.702Z,1001.91
2022-11-15T04:50:38.678Z,1001.89
2022-11-15T04:51:38.684Z,1001.90
2022-11-15T04:52:38.687Z,1001.90
2022-11-15T04:53:38.708Z,1001.90
2022-11-15T04:54:38.639Z,1001.89
2022-11-15T04:55:38.642Z,1001.86
2022-11-15T04:56:38.620Z,1001.87
2022-11-15T04:57:38.626Z,1001.85
2022-11-15T04:58:38.608Z,1001.85
2022-11-15T04:59:38.618Z,1001.84
2022-11-15T05:00:38.681Z,1001.83
2022-11-15T05:01:44.584Z,1001.79
2022-11-15T05:02:38.585Z,1001.78
2022-11-15T05:03:38.566Z,1001.78
2022-11-15T05:04:38.574Z,1001.75
2022-11-15T05:05:38.532Z,1001.72
2022-11-15T05:06:38.494Z,1001.70
2022-11-15T05:07:38.523Z,1001.66
2022-11-15T05:08:38.528Z,1001.63
2022-11-15T05:09:38.503Z,1001.64
2022-11-15T05:10:38.485Z,1001.64
2022-11-15T05:11:38.469Z,1001.63
2022-11-15T05:12:38.484Z,1001.58
2022-11-15T05:13:38.461Z,1001.54
2022-11-15T05:14:38.453Z,1001.52
2022-11-15T05:15:38.461Z,1001.51
2022-11-15T05:16:38.437Z,1001.53
2022-11-15T05:17:38.408Z,1001.54
2022-11-15T05:18:38.399Z,1001.55
2022-11-15T05:19:38.349Z,1001.53
2022-11-15T05:20:38.397Z,1001.50
2022-11-15T05:21:38.364Z,1001.48
2022-11-15T05:22:38.389Z,1001.47
2022-11-15T05:23:38.361Z,1001.47
2022-11-15T05:24:38.304Z,1001.48
2022-11-15T05:25:38.345Z,1001.51
2022-11-15T05:26:38.316Z,1001.54
2022-11-15T05:27:38.288Z,1001.58
2022-11-15T05:28:38.296Z,1001.58
2022-11-15T05:29:38.313Z,1001.59
2022-11-15T05:30:38.301Z,1001.59
2022-11-15T05:31:38.278Z,1001.56
2022-11-15T05:32:38.306Z,1001.54
2022-11-15T05:33:38.268Z,1001.54
2022-11-15T05:34:38.194Z,1001.53
2022-11-15T05:35:38.239Z,1001.53
2022-11-15T05:36:38.176Z,1001.53
2022-11-15T05:37:38.259Z,1001.52
2022-11-15T05:38:38.213Z,1001.54
2022-11-15T05:39:38.205Z,1001.58
2022-11-15T05:40:38.180Z,1001.61
2022-11-15T05:41:38.172Z,1001.62
2022-11-15T05:42:38.167Z,1001.61
2022-11-15T05:43:38.103Z,1001.60
2022-11-15T05:44:38.145Z,1001.57
2022-11-15T05:45:38.154Z,1001.56
2022-11-15T05:46:38.077Z,1001.54
2022-11-15T05:47:38.105Z,1001.51
2022-11-15T05:48:38.107Z,1001.49
2022-11-15T05:49:38.019Z,1001.50
2022-11-15T05:50:38.093Z,1001.52
2022-11-15T05:51:38.023Z,1001.53
2022-11-15T05:52:38.067Z,1001.55
2022-11-15T05:53:38.059Z,1001.58
2022-11-15T05:54:38.054Z,1001.61
2022-11-15T05:55:38.021Z,1001.64
2022-11-15T05:56:38.047Z,1001.65
2022-11-15T05:57:38.011Z,1001.66
2022-11-15T05:58:38.018Z,1001.68
2022-11-15T05:59:37.951Z,1001.69
2022-11-15T06:00:37.971Z,1001.70
2022-11-15T06:01:37.989Z,1001.71
2022-11-15T06:02:38.048Z,1001.71
2022-11-15T06:03:37.949Z,1001.70
2022-11-15T06:04:37.886Z,1001.68
2022-11-15T06:05:37.923Z,1001.68
2022-11-15T06:06:37.915Z,1001.69
2022-11-15T06:07:37.975Z,1001.71
2022-11-15T06:08:37.919Z,1001.72
2022-11-15T06:09:37.888Z,1001.72
2022-11-15T06:10:37.866Z,1001.69
2022-11-15T06:11:37.862Z,1001.64
2022-11-15T06:12:37.833Z,1001.59
2022-11-15T06:13:37.843Z,1001.56
2022-11-15T06:14:37.838Z,1001.56
2022-11-15T06:15:37.837Z,1001.58
2022-11-15T06:16:37.806Z,1001.60
2022-11-15T06:17:37.826Z,1001.61
2022-11-15T06:18:37.802Z,1001.63
2022-11-15T06:19:37.770Z,1001.65
2022-11-15T06:20:37.728Z,1001.65
2022-11-15T06:21:37.740Z,1001.65
2022-11-15T06:22:37.729Z,1001.64
2022-11-15T06:23:37.825Z,1001.64
2022-11-15T06:24:37.712Z,1001.65
2022-11-15T06:25:37.760Z,1001.66
2022-11-15T06:26:37.668Z,1001.65
2022-11-15T06:27:37.663Z,1001.63
2022-11-15T06:28:37.644Z,1001.60
2022-11-15T06:29:37.629Z,1001.57
2022-11-15T06:30:37.662Z,1001.57
2022-11-15T06:31:37.647Z,1001.58
2022-11-15T06:32:37.714Z,1001.59
2022-11-15T06:33:37.666Z,1001.61
2022-11-15T06:34:37.611Z,1001.62
2022-11-15T06:35:37.603Z,1001.63
2022-11-15T06:36:37.606Z,1001.65
2022-11-15T06:37:37.547Z,1001.67
2022-11-15T06:38:37.548Z,1001.69
2022-11-15T06:39:37.532Z,1001.70
2022-11-15T06:40:37.529Z,1001.70
2022-11-15T06:41:37.507Z,1001.69
2022-11-15T06:42:37.533Z,1001.69
2022-11-15T06:43:37.516Z,1001.69
2022-11-15T06:44:37.474Z,1001.68
2022-11-15T06:45:37.479Z,1001.69
2022-11-15T06:46:37.498Z,1001.68
2022-11-15T06:47:37.441Z,1001.68
2022-11-15T06:48:37.467Z,1001.69
2022-11-15T06:49:37.429Z,1001.69
2022-11-15T06:50:37.411Z,1001.68
2022-11-15T06:51:37.431Z,1001.68
2022-11-15T06:52:37.398Z,1001.68
2022-11-15T06:53:37.425Z,1001.67
2022-11-15T06:54:37.434Z,1001.66
2022-11-15T06:55:37.394Z,1001.66
2022-11-15T06:56:37.358Z,1001.67
2022-11-15T06:57:37.339Z,1001.68
2022-11-15T06:58:37.333Z,1001.71
2022-11-15T06:59:40.495Z,1001.73
2022-11-15T07:00:37.356Z,1001.74
2022-11-15T07:01:37.342Z,1001.74
2022-11-15T07:02:37.292Z,1001.74
2022-11-15T07:03:37.281Z,1001.72
2022-11-15T07:04:37.327Z,1001.71
2022-11-15T07:05:37.314Z,1001.67
2022-11-15T07:06:37.245Z,1001.66
2022-11-15T07:07:37.336Z,1001.64
2022-11-15T07:08:37.272Z,1001.63
2022-11-15T07:09:37.272Z,1001.60
2022-11-15T07:10:37.232Z,1001.60
2022-11-15T07:11:37.203Z,1001.64
2022-11-15T07:12:37.242Z,1001.68
2022-11-15T07:13:37.186Z,1001.70
2022-11-15T07:14:37.194Z,1001.71
2022-11-15T07:15:37.154Z,1001.73
2022-11-15T07:16:37.151Z,1001.73
2022-11-15T07:17:37.240Z,1001.71
2022-11-15T07:18:37.135Z,1001.70
2022-11-15T07:19:37.141Z,1001.70
2022-11-15T07:20:37.116Z,1001.71
2022-11-15T07:21:37.095Z,1001.71
2022-11-15T07:22:37.172Z,1001.68
2022-11-15T07:23:37.094Z,1001.67
2022-11-15T07:24:37.101Z,1001.66
2022-11-15T07:25:37.060Z,1001.67
2022-11-15T07:26:37.080Z,1001.68
2022-11-15T07:27:37.025Z,1001.68
2022-11-15T07:28:37.031Z,1001.69
2022-11-15T07:29:37.029Z,1001.71
2022-11-15T07:30:41.193Z,1001.74
2022-11-15T07:31:37.003Z,1001.77
2022-11-15T07:32:37.010Z,1001.78
2022-11-15T07:33:37.407Z,1001.77
2022-11-15T07:34:37.014Z,1001.76
2022-11-15T07:35:37.011Z,1001.75
2022-11-15T07:36:37.239Z,1001.74
2022-11-15T07:37:37.252Z,1001.73
2022-11-15T07:38:42.513Z,1001.73
2022-11-15T07:39:36.928Z,1001.73
2022-11-15T07:40:36.921Z,1001.75
2022-11-15T07:41:36.951Z,1001.76
2022-11-15T07:42:36.932Z,1001.76
2022-11-15T07:43:36.903Z,1001.76
2022-11-15T07:44:36.883Z,1001.75
2022-11-15T07:45:36.897Z,1001.74
2022-11-15T07:46:36.892Z,1001.74
2022-11-15T07:47:36.854Z,1001.76
2022-11-15T07:48:44.044Z,1001.78
2022-11-15T07:49:36.820Z,1001.81
2022-11-15T07:50:36.802Z,1001.83
2022-11-15T07:51:36.830Z,1001.83
2022-11-15T07:52:36.787Z,1001.82
2022-11-15T07:53:36.793Z,1001.79
2022-11-15T07:54:36.767Z,1001.78
2022-11-15T07:55:36.745Z,1001.79
2022-11-15T07:56:36.743Z,1001.80
2022-11-15T07:57:36.743Z,1001.81
2022-11-15T07:58:36.716Z,1001.82
2022-11-15T07:59:36.766Z,1001.83
2022-11-15T08:00:36.725Z,1001.83
2022-11-15T08:01:36.720Z,1001.83
2022-11-15T08:02:36.823Z,1001.83
2022-11-15T08:03:36.694Z,1001.85
2022-11-15T08:04:36.707Z,1001.88
2022-11-15T08:05:36.701Z,1001.88
2022-11-15T08:06:36.712Z,1001.86
2022-11-15T08:07:36.679Z,1001.82
2022-11-15T08:08:36.635Z,1001.77
2022-11-15T08:09:36.608Z,1001.72
2022-11-15T08:10:40.611Z,1001.67
2022-11-15T08:11:36.640Z,1001.64
2022-11-15T08:12:36.629Z,1001.63
2022-11-15T08:13:36.560Z,1001.62
2022-11-15T08:14:36.551Z,1001.63
2022-11-15T08:15:36.617Z,1001.65
2022-11-15T08:16:36.576Z,1001.66
2022-11-15T08:17:36.531Z,1001.65
2022-11-15T08:18:37.258Z,1001.64
2022-11-15T08:19:36.506Z,1001.62
2022-11-15T08:20:36.501Z,1001.60
2022-11-15T08:21:36.512Z,1001.60
2022-11-15T08:22:36.513Z,1001.61
2022-11-15T08:23:37.320Z,1001.62
2022-11-15T08:24:36.569Z,1001.62
2022-11-15T08:25:36.432Z,1001.62
2022-11-15T08:26:36.455Z,1001.63
2022-11-15T08:27:36.548Z,1001.64
2022-11-15T08:28:37.573Z,1001.65
2022-11-15T08:29:36.444Z,1001.66
2022-11-15T08:30:36.414Z,1001.66
2022-11-15T08:31:36.372Z,1001.66
2022-11-15T08:32:36.369Z,1001.65
2022-11-15T08:33:36.410Z,1001.62
2022-11-15T08:34:36.388Z,1001.60
2022-11-15T08:35:36.347Z,1001.58
2022-11-15T08:36:44.555Z,1001.58
2022-11-15T08:37:36.395Z,1001.58
2022-11-15T08:38:36.326Z,1001.59
2022-11-15T08:39:36.332Z,1001.60
2022-11-15T08:40:36.292Z,1001.60
2022-11-15T08:41:36.353Z,1001.61
2022-11-15T08:42:36.277Z,1001.62
2022-11-15T08:43:36.276Z,1001.62
2022-11-15T08:44:36.272Z,1001.61
2022-11-15T08:45:36.265Z,1001.60
2022-11-15T08:46:36.243Z,1001.59
2022-11-15T08:47:36.270Z,1001.59
2022-11-15T08:48:36.226Z,1001.58
2022-11-15T08:49:36.214Z,1001.56
2022-11-15T08:50:36.184Z,1001.56
2022-11-15T08:51:36.180Z,1001.57
2022-11-15T08:52:36.194Z,1001.59
2022-11-15T08:53:36.179Z,1001.60
2022-11-15T08:54:36.146Z,1001.60
2022-11-15T08:55:36.153Z,1001.61
2022-11-15T08:56:36.133Z,1001.61
2022-11-15T08:57:36.254Z,1001.60
2022-11-15T08:58:36.151Z,1001.57
2022-11-15T08:59:36.116Z,1001.55
2022-11-15T09:00:36.095Z,1001.56
2022-11-15T09:01:36.120Z,1001.55
2022-11-15T09:02:36.113Z,1001.54
2022-11-15T09:03:36.122Z,1001.53
2022-11-15T09:04:36.087Z,1001.53
2022-11-15T09:05:36.065Z,1001.55
2022-11-15T09:06:38.677Z,1001.56
2022-11-15T09:07:36.072Z,1001.58
2022-11-15T09:08:51.319Z,1001.58
2022-11-15T09:09:36.033Z,1001.57
2022-11-15T09:10:36.054Z,1001.54
2022-11-15T09:11:36.055Z,1001.52
2022-11-15T09:12:36.036Z,1001.49
2022-11-15T09:13:35.952Z,1001.46
2022-11-15T09:14:36.065Z,1001.44
2022-11-15T09:15:35.955Z,1001.42
2022-11-15T09:16:36.214Z,1001.41
2022-11-15T09:17:35.914Z,1001.40
2022-11-15T09:18:36.171Z,1001.39
2022-11-15T09:19:35.899Z,1001.40
2022-11-15T09:20:35.950Z,1001.41
2022-11-15T09:21:35.928Z,1001.43
2022-11-15T09:22:35.858Z,1001.44
2022-11-15T09:23:35.899Z,1001.44
2022-11-15T09:24:35.885Z,1001.44
2022-11-15T09:25:35.863Z,1001.46
2022-11-15T09:26:35.813Z,1001.47
2022-11-15T09:27:35.825Z,1001.47
2022-11-15T09:28:35.992Z,1001.46
2022-11-15T09:29:35.814Z,1001.45
2022-11-15T09:30:35.857Z,1001.45
2022-11-15T09:31:35.782Z,1001.45
2022-11-15T09:32:39.257Z,1001.45
2022-11-15T09:33:36.057Z,1001.44
2022-11-15T09:34:35.753Z,1001.44
2022-11-15T09:35:35.740Z,1001.42
2022-11-15T09:36:35.732Z,1001.43
2022-11-15T09:37:35.738Z,1001.45
2022-11-15T09:38:36.005Z,1001.45
2022-11-15T09:39:35.692Z,1001.44
2022-11-15T09:40:35.672Z,1001.44
2022-11-15T09:41:35.707Z,1001.42
2022-11-15T09:42:35.678Z,1001.41
2022-11-15T09:43:35.735Z,1001.41
2022-11-15T09:44:35.704Z,1001.40
2022-11-15T09:45:35.626Z,1001.38
2022-11-15T09:46:35.908Z,1001.35
2022-11-15T09:47:35.644Z,1001.32
2022-11-15T09:48:35.655Z,1001.30
2022-11-15T09:49:35.777Z,1001.30
2022-11-15T09:50:35.695Z,1001.29
2022-11-15T09:51:35.907Z,1001.28
2022-11-15T09:52:36.443Z,1001.27
2022-11-15T09:54:13.546Z,1001.26
2022-11-15T09:55:35.753Z,1001.27
2022-11-15T09:56:35.752Z,1001.28
2022-11-15T09:57:35.577Z,1001.29
2022-11-15T09:58:36.388Z,1001.29
2022-11-15T09:59:35.946Z,1001.30
2022-11-15T10:00:50.962Z,1001.30
2022-11-15T10:01:35.543Z,1001.30
2022-11-15T10:02:35.464Z,1001.31
2022-11-15T10:03:35.458Z,1001.32
2022-11-15T10:04:35.493Z,1001.32
2022-11-15T10:05:35.481Z,1001.31
2022-11-15T10:06:35.533Z,1001.31
2022-11-15T10:07:35.470Z,1001.30
2022-11-15T10:08:35.769Z,1001.31
2022-11-15T10:09:35.388Z,1001.31
2022-11-15T10:10:35.403Z,1001.31
2022-11-15T10:11:38.287Z,1001.30
2022-11-15T10:12:35.540Z,1001.29
2022-11-15T10:13:36.367Z,1001.27
2022-11-15T10:14:35.421Z,1001.27
2022-11-15T10:15:35.408Z,1001.26
2022-11-15T10:16:35.360Z,1001.25
2022-11-15T10:17:35.326Z,1001.24
2022-11-15T10:18:35.429Z,1001.23
2022-11-15T10:19:35.359Z,1001.22
2022-11-15T10:20:35.349Z,1001.20
2022-11-15T10:21:35.289Z,1001.17
2022-11-15T10:22:35.274Z,1001.16
2022-11-15T10:23:35.298Z,1001.14
2022-11-15T10:24:35.246Z,1001.14
2022-11-15T10:25:35.240Z,1001.14
2022-11-15T10:26:35.210Z,1001.13
2022-11-15T10:27:35.270Z,1001.12
2022-11-15T10:28:35.965Z,1001.11
2022-11-15T10:29:35.193Z,1001.11
2022-11-15T10:30:35.269Z,1001.11
2022-11-15T10:31:35.163Z,1001.10
2022-11-15T10:32:35.206Z,1001.09
2022-11-15T10:33:35.211Z,1001.07
2022-11-15T10:34:35.214Z,1001.05
2022-11-15T10:35:35.236Z,1001.02
2022-11-15T10:36:35.153Z,1000.99
2022-11-15T10:37:35.210Z,1000.97
2022-11-15T10:38:35.255Z,1000.94
2022-11-15T10:39:35.234Z,1000.91
2022-11-15T10:40:35.116Z,1000.89
2022-11-15T10:41:35.077Z,1000.87
2022-11-15T10:42:35.085Z,1000.84
2022-11-15T10:43:35.068Z,1000.82
2022-11-15T10:44:35.234Z,1000.79
2022-11-15T10:45:35.023Z,1000.77
2022-11-15T10:46:50.361Z,1000.75
2022-11-15T10:47:39.441Z,1000.73
2022-11-15T10:48:35.018Z,1000.70
2022-11-15T10:49:35.292Z,1000.67
2022-11-15T10:50:35.262Z,1000.64
2022-11-15T10:51:34.990Z,1000.62
2022-11-15T10:52:34.980Z,1000.61
2022-11-15T10:53:34.993Z,1000.59
2022-11-15T10:54:35.000Z,1000.54
2022-11-15T10:55:34.949Z,1000.52
2022-11-15T10:56:34.944Z,1000.49
2022-11-15T10:57:34.915Z,1000.46
2022-11-15T10:58:35.326Z,1000.44
2022-11-15T10:59:38.997Z,1000.42
2022-11-15T11:00:35.000Z,1000.40
2022-11-15T11:01:34.929Z,1000.37
2022-11-15T11:02:35.865Z,1000.34
2022-11-15T11:03:34.924Z,1000.31
2022-11-15T11:04:34.847Z,1000.29
2022-11-15T11:05:41.027Z,1000.27
2022-11-15T11:06:34.849Z,1000.25
2022-11-15T11:07:34.822Z,1000.22
2022-11-15T11:08:34.966Z,1000.20
2022-11-15T11:09:34.840Z,1000.17
2022-11-15T11:10:51.975Z,1000.16
2022-11-15T11:11:35.314Z,1000.15
2022-11-15T11:12:34.772Z,1000.13
2022-11-15T11:13:34.811Z,1000.14
2022-11-15T11:14:34.808Z,1000.13
2022-11-15T11:15:34.800Z,1000.11
2022-11-15T11:16:38.821Z,1000.10
2022-11-15T11:17:34.734Z,1000.09
2022-11-15T11:18:34.983Z,1000.07
2022-11-15T11:19:34.719Z,1000.06
2022-11-15T11:20:34.678Z,1000.04
2022-11-15T11:21:39.739Z,1000.02
2022-11-15T11:22:34.782Z,1000.01
2022-11-15T11:23:34.948Z,1000.00
2022-11-15T11:24:34.695Z,1000.00
2022-11-15T11:25:34.704Z,1000.01
2022-11-15T11:26:34.652Z,1000.02
2022-11-15T11:27:34.710Z,1000.03
2022-11-15T11:28:34.997Z,1000.02
2022-11-15T11:29:34.623Z,1000.03
2022-11-15T11:30:34.595Z,1000.03
2022-11-15T11:31:34.933Z,1000.03
2022-11-15T11:32:34.604Z,1000.02
2022-11-15T11:33:34.555Z,1000.03
2022-11-15T11:34:34.578Z,1000.03
2022-11-15T11:35:34.543Z,1000.03
2022-11-15T11:36:34.585Z,1000.02
2022-11-15T11:37:34.796Z,1000.00
2022-11-15T11:38:35.362Z,1000.00
2022-11-15T11:39:34.531Z,999.99
2022-11-15T11:40:34.542Z,999.98
2022-11-15T11:41:34.606Z,999.96
2022-11-15T11:42:34.475Z,999.94
2022-11-15T11:43:34.561Z,999.93
2022-11-15T11:44:34.459Z,999.93
2022-11-15T11:45:34.446Z,999.93
2022-11-15T11:46:34.845Z,999.91
2022-11-15T11:47:34.396Z,999.90
2022-11-15T11:48:34.669Z,999.90
2022-11-15T11:49:34.398Z,999.89
2022-11-15T11:50:34.396Z,999.89
2022-11-15T11:51:34.357Z,999.89
2022-11-15T11:52:34.330Z,999.87
2022-11-15T11:53:34.361Z,999.85
2022-11-15T11:54:34.327Z,999.83
2022-11-15T11:55:34.326Z,999.82
2022-11-15T11:56:34.305Z,999.81
2022-11-15T11:57:34.351Z,999.79
2022-11-15T11:58:34.541Z,999.78
2022-11-15T11:59:34.274Z,999.75
2022-11-15T12:00:34.297Z,999.73
2022-11-15T12:01:34.471Z,999.72
2022-11-15T12:02:34.396Z,999.70
2022-11-15T12:03:34.280Z,999.69
2022-11-15T12:04:34.227Z,999.68
2022-11-15T12:05:34.267Z,999.68
2022-11-15T12:06:34.223Z,999.70
2022-11-15T12:07:34.289Z,999.69